Terminal Aerodrome Forecast
Issued by NWS Charleston, WV

Home | Current Version | Previous Version | Text Only | Print | Product List | Glossary On
Versions: 1 2 3 4 5 6 7 8 9 10 11 12 13 14 15 16 17 18 19 20 21 22 23
176
FTUS41 KRLX 301733
TAFPKB
TAF
KPKB 301733Z 3018/0118 07008KT P6SM -RA OVC090
     FM302200 VRB03KT 5SM SHRA OVC027
     FM010100 11009G17KT P6SM -SHRA OVC018
     FM010300 14007KT 6SM -SHRA OVC014
     FM011500 22005KT 6SM -SHRA VCTS BKN025CB=

USA.gov is the U.S. government's official web portal to all federal, state and local government web resources and services.